Terminal Aerodrome Forecast
Issued by NWS Wilmington, OH

Current Version | Previous Version | Text Only | Print | Product List | Glossary Off
Versions: 1 2 3 4 5 6 7 8 9 10 11 12 13 14 15 16 17 18 19 20 21

928
FTUS41 KILN 231324 AAA
TAFCMH
TAF AMD
KCMH 231324Z 2313/2412 23003KT 4SM -SHRA BR BKN012 OVC025
     FM231600 24006KT P6SM VCSH BKN025
     FM232100 27006KT P6SM -SHRA VCTS BKN035CB
      TEMPO 2322/2402 5SM -TSRA BKN025CB
     FM240400 00000KT P6SM FEW035
     FM240700 00000KT 5SM BR FEW050=

USA.gov is the U.S. government's official web portal to all federal, state and local government web resources and services.